Time;durP1;ratioP1;P1;durP2;ratioP2;P2;SDS_P1;SDS_P2;PMS_P1;PMS_P2;Temp;Humidity;BMP_temperature;BMP_pressure;BME280_temperature;BME280_humidity;BME280_pressure;Samples;Min_cycle;Max_cycle;Signal;HPM_P1;HPM_P2
2023/03/15 00:01:20;;;;;;;0.20;0.20;;;;;;;4.69;84.41;99910.97;5027898;28;20662;-50
2023/03/15 00:03:46;;;;;;;0.30;0.30;;;;;;;4.82;84.15;99922.44;5021681;28;20034;-51
2023/03/15 00:06:13;;;;;;;0.38;0.38;;;;;;;4.89;83.07;99931.41;5022049;28;20026;-47
2023/03/15 00:08:38;;;;;;;0.20;0.20;;;;;;;4.85;83.56;99940.41;5030919;28;20033;-47
2023/03/15 00:11:05;;;;;;;0.20;0.20;;;;;;;4.77;84.17;99939.41;5033830;28;20248;-49
2023/03/15 00:13:31;;;;;;;0.20;0.20;;;;;;;4.45;85.74;99938.38;5028959;28;20083;-47
2023/03/15 00:15:59;;;;;;;0.20;0.20;;;;;;;4.61;85.45;99945.75;5032012;28;21360;-48
2023/03/15 00:18:26;;;;;;;0.20;0.20;;;;;;;4.61;85.37;99949.19;5032905;28;20040;-51
2023/03/15 00:20:52;;;;;;;0.20;0.20;;;;;;;4.76;83.74;99948.53;5032411;28;20045;-51
2023/03/15 00:23:17;;;;;;;0.20;0.20;;;;;;;4.63;85.17;99954.97;5026985;28;20025;-51
2023/03/15 00:25:44;;;;;;;0.30;0.30;;;;;;;4.76;84.45;99966.44;5032378;28;20105;-48
2023/03/15 00:28:10;;;;;;;0.20;0.20;;;;;;;4.56;85.25;99954.75;5023207;28;20037;-50
2023/03/15 00:30:36;;;;;;;0.20;0.20;;;;;;;4.52;85.72;99970.63;5030177;28;20037;-52
2023/03/15 00:33:04;;;;;;;0.20;0.20;;;;;;;4.55;86.24;99961.94;5027493;28;20133;-47
2023/03/15 00:35:32;;;;;;;0.20;0.20;;;;;;;4.55;86.14;99969.16;5028962;28;20639;-51
2023/03/15 00:37:58;;;;;;;0.20;0.20;;;;;;;4.64;86.14;99977.84;5027064;28;20125;-48
2023/03/15 00:40:23;;;;;;;0.30;0.30;;;;;;;4.51;86.50;99973.59;5027618;28;20028;-49
2023/03/15 00:42:50;;;;;;;0.17;0.17;;;;;;;4.72;86.31;99981.53;5028921;28;20021;-49
2023/03/15 00:45:20;;;;;;;0.20;0.20;;;;;;;4.84;85.95;99990.31;5028431;28;20045;-50
2023/03/15 00:47:50;;;;;;;0.20;0.20;;;;;;;4.80;86.39;99996.66;5007685;28;20021;-51
2023/03/15 00:50:16;;;;;;;0.32;0.32;;;;;;;4.58;87.07;99995.16;5026666;28;20083;-48
2023/03/15 00:52:42;;;;;;;0.28;0.28;;;;;;;4.69;86.95;99988.28;5029811;28;20488;-47
2023/03/15 00:55:12;;;;;;;0.28;0.28;;;;;;;4.72;86.37;99990.31;5027608;28;20061;-52
2023/03/15 00:57:39;;;;;;;0.80;0.43;;;;;;;4.59;86.54;99989.50;5024126;28;20048;-48
2023/03/15 01:00:08;;;;;;;0.30;0.30;;;;;;;4.62;86.48;99989.94;5028901;28;20280;-52
2023/03/15 01:02:36;;;;;;;0.20;0.20;;;;;;;4.70;86.92;99992.53;5029671;28;20396;-48
2023/03/15 01:05:02;;;;;;;0.30;0.30;;;;;;;4.73;86.34;99999.84;5025249;28;20404;-54
2023/03/15 01:07:27;;;;;;;0.30;0.30;;;;;;;4.82;85.41;100000.53;5034799;28;20029;-51
2023/03/15 01:09:53;;;;;;;0.20;0.20;;;;;;;4.64;86.00;100003.72;5039190;28;20037;-49
2023/03/15 01:12:18;;;;;;;0.30;0.30;;;;;;;4.64;86.77;100007.19;5035346;28;20032;-49
2023/03/15 01:14:44;;;;;;;0.20;0.20;;;;;;;4.79;85.56;100011.88;5030586;28;20059;-49
2023/03/15 01:17:09;;;;;;;0.20;0.20;;;;;;;4.50;86.91;100010.16;5037958;28;20392;-54
2023/03/15 01:19:35;;;;;;;0.20;0.20;;;;;;;4.67;86.47;100011.84;5035505;28;20029;-49
2023/03/15 01:22:00;;;;;;;0.35;0.35;;;;;;;4.74;86.13;100006.75;5034723;28;20033;-48
2023/03/15 01:24:26;;;;;;;0.30;0.30;;;;;;;4.74;86.51;100008.66;5036713;28;20037;-50
2023/03/15 01:26:51;;;;;;;0.30;0.30;;;;;;;4.61;86.61;100010.50;5037980;28;20033;-49
2023/03/15 01:29:17;;;;;;;0.20;0.20;;;;;;;4.70;86.83;100013.88;5017840;28;20025;-49
2023/03/15 01:31:42;;;;;;;0.22;0.22;;;;;;;4.45;87.40;100005.03;5018950;28;20420;-49
2023/03/15 01:34:09;;;;;;;0.20;0.20;;;;;;;4.57;87.40;100022.94;5044333;28;20033;-49
2023/03/15 01:36:34;;;;;;;0.20;0.20;;;;;;;4.66;86.36;100012.19;5024918;28;20097;-49
2023/03/15 01:39:00;;;;;;;0.20;0.20;;;;;;;4.49;87.08;100019.25;5026957;28;20520;-47
2023/03/15 01:41:37;;;;;;;0.20;0.20;;;;;;;4.67;86.53;100019.84;5022303;28;20041;-47
2023/03/15 01:44:03;;;;;;;0.20;0.20;;;;;;;4.71;86.59;100026.06;5032248;28;20060;-52
2023/03/15 01:46:33;;;;;;;0.30;0.30;;;;;;;4.64;86.82;100027.72;5029301;28;20075;-47
2023/03/15 01:49:31;;;;;;;0.30;0.30;;;;;;;4.54;87.64;100032.38;5045374;28;20508;-52
2023/03/15 01:52:08;;;;;;;0.20;0.20;;;;;;;4.54;87.87;100026.25;5045308;28;20033;-48
2023/03/15 01:54:55;;;;;;;0.20;0.20;;;;;;;4.78;87.26;100031.63;5018349;28;20759;-48
2023/03/15 01:57:30;;;;;;;0.30;0.30;;;;;;;4.76;87.30;100049.88;5025129;28;20120;-49
2023/03/15 02:00:09;;;;;;;0.30;0.30;;;;;;;4.80;86.84;100047.31;5025083;28;20084;-48
2023/03/15 02:02:45;;;;;;;0.20;0.20;;;;;;;4.78;86.93;100046.88;5031607;28;20064;-51
2023/03/15 02:05:20;;;;;;;0.20;0.20;;;;;;;4.76;88.02;100044.53;5036939;28;20025;-47
2023/03/15 02:07:53;;;;;;;0.20;0.20;;;;;;;4.43;88.78;100049.13;5046047;28;20025;-49
2023/03/15 02:10:27;;;;;;;0.30;0.30;;;;;;;4.46;89.15;100054.56;5032439;28;20033;-50
2023/03/15 02:12:56;;;;;;;0.22;0.22;;;;;;;4.52;89.19;100068.47;5033007;28;20091;-48
2023/03/15 02:15:21;;;;;;;0.30;0.30;;;;;;;4.60;89.17;100054.28;5046952;28;20031;-47
2023/03/15 02:17:47;;;;;;;0.30;0.30;;;;;;;4.59;89.48;100061.47;5033310;28;20496;-52
2023/03/15 02:20:16;;;;;;;0.20;0.20;;;;;;;4.65;89.76;100054.06;5032770;28;20392;-46
2023/03/15 02:22:55;;;;;;;0.22;0.22;;;;;;;4.65;89.33;100061.25;5036234;28;20074;-50
2023/03/15 02:25:37;;;;;;;0.20;0.20;;;;;;;4.50;90.21;100057.34;5025876;28;20116;-47
2023/03/15 02:28:05;;;;;;;0.20;0.20;;;;;;;4.66;90.24;100066.28;5031460;28;20029;-47
2023/03/15 02:30:31;;;;;;;0.20;0.20;;;;;;;4.22;91.86;100064.38;5025735;28;20033;-47
2023/03/15 02:33:00;;;;;;;0.30;0.30;;;;;;;4.41;91.76;100070.00;5031371;28;20037;-46
2023/03/15 02:35:30;;;;;;;0.30;0.30;;;;;;;4.50;91.12;100079.47;5024144;28;20026;-48
2023/03/15 02:37:56;;;;;;;0.20;0.20;;;;;;;4.40;92.25;100081.75;5027579;28;20037;-47
2023/03/15 02:40:27;;;;;;;0.20;0.20;;;;;;;4.57;91.89;100078.91;5031985;28;20059;-47
2023/03/15 02:43:10;;;;;;;0.30;0.30;;;;;;;4.47;92.68;100082.75;5036741;28;20041;-47
2023/03/15 02:45:57;;;;;;;0.20;0.20;;;;;;;4.68;91.62;100084.63;5034025;28;20307;-47
2023/03/15 02:48:22;;;;;;;0.20;0.20;;;;;;;4.64;91.48;100094.38;4965413;28;20043;-47
2023/03/15 02:50:48;;;;;;;0.35;0.35;;;;;;;4.30;92.85;100095.47;4975818;28;20097;-47
2023/03/15 02:53:14;;;;;;;0.20;0.20;;;;;;;4.62;92.24;100092.03;4975872;28;20070;-47
2023/03/15 02:55:39;;;;;;;0.30;0.30;;;;;;;4.73;91.73;100100.41;4971536;28;20543;-51
2023/03/15 02:58:05;;;;;;;0.20;0.20;;;;;;;4.77;91.89;100109.31;4975879;28;20026;-51
2023/03/15 03:00:30;;;;;;;0.30;0.30;;;;;;;4.61;91.64;100114.47;4971712;28;20468;-48
2023/03/15 03:02:56;;;;;;;0.20;0.20;;;;;;;4.44;92.45;100114.63;4970123;28;20042;-47
2023/03/15 03:05:22;;;;;;;0.30;0.30;;;;;;;4.68;91.34;100122.72;4997837;28;20517;-48
2023/03/15 03:07:49;;;;;;;0.30;0.30;;;;;;;4.95;90.18;100137.38;4976569;28;20139;-49
2023/03/15 03:10:17;;;;;;;0.20;0.20;;;;;;;4.68;90.19;100138.72;4968970;28;20117;-47
2023/03/15 03:12:52;;;;;;;0.22;0.22;;;;;;;4.64;91.18;100139.69;4973922;28;20030;-48
2023/03/15 03:15:19;;;;;;;0.20;0.20;;;;;;;4.51;91.81;100141.53;4974501;28;20023;-47
2023/03/15 03:17:45;;;;;;;0.30;0.30;;;;;;;4.63;91.33;100146.16;4974412;28;20505;-47
2023/03/15 03:20:12;;;;;;;0.30;0.30;;;;;;;4.63;91.69;100157.59;4972227;28;20026;-47
2023/03/15 03:22:43;;;;;;;0.20;0.20;;;;;;;4.83;90.80;100162.13;4975187;28;20437;-48
2023/03/15 03:25:10;;;;;;;0.28;0.28;;;;;;;4.58;91.40;100155.13;5008984;28;20048;-47
2023/03/15 03:27:35;;;;;;;0.30;0.30;;;;;;;4.57;91.76;100165.00;5029394;28;20025;-48
2023/03/15 03:30:07;;;;;;;0.30;0.30;;;;;;;4.51;92.06;100170.84;5030126;28;20536;-47
2023/03/15 03:32:33;;;;;;;0.10;0.10;;;;;;;4.72;90.83;100166.31;5040299;28;20116;-48
2023/03/15 03:34:59;;;;;;;0.20;0.20;;;;;;;4.83;90.30;100164.78;5016155;28;20100;-47
2023/03/15 03:37:25;;;;;;;0.30;0.30;;;;;;;4.97;89.59;100170.63;5029625;28;20044;-53
2023/03/15 03:39:58;;;;;;;0.20;0.20;;;;;;;4.77;89.46;100166.09;5028736;28;20100;-44
2023/03/15 03:42:24;;;;;;;0.20;0.20;;;;;;;4.73;90.48;100183.84;5026135;28;20042;-46
2023/03/15 03:44:49;;;;;;;0.20;0.20;;;;;;;4.40;90.87;100185.69;5027818;28;20029;-43
2023/03/15 03:47:16;;;;;;;0.20;0.20;;;;;;;4.34;92.01;100192.31;5026452;28;20049;-45
2023/03/15 03:49:41;;;;;;;0.20;0.20;;;;;;;4.29;91.77;100189.84;5020384;28;20558;-53
2023/03/15 03:52:07;;;;;;;0.20;0.20;;;;;;;4.39;92.35;100194.78;5012011;28;20040;-52
2023/03/15 03:54:33;;;;;;;0.40;0.40;;;;;;;4.52;92.59;100207.06;5015970;28;20026;-46
2023/03/15 03:56:59;;;;;;;0.30;0.30;;;;;;;4.57;92.28;100222.88;5022110;28;20056;-44
2023/03/15 03:59:28;;;;;;;0.25;0.25;;;;;;;4.55;92.54;100217.06;5015413;28;20456;-46
2023/03/15 04:02:00;;;;;;;0.30;0.30;;;;;;;4.62;92.12;100220.03;5020829;28;20076;-46
2023/03/15 04:04:29;;;;;;;0.30;0.30;;;;;;;4.77;91.31;100230.09;5016153;28;20033;-49
2023/03/15 04:06:54;;;;;;;0.20;0.20;;;;;;;4.82;91.43;100226.47;5011563;28;20500;-51
2023/03/15 04:09:24;;;;;;;0.20;0.20;;;;;;;4.95;90.42;100231.53;5026495;28;20024;-53
2023/03/15 04:11:51;;;;;;;0.20;0.20;;;;;;;4.69;91.42;100235.47;5046452;28;20041;-49
2023/03/15 04:14:17;;;;;;;0.30;0.30;;;;;;;4.70;92.22;100251.19;5037817;28;20040;-50
2023/03/15 04:16:44;;;;;;;0.20;0.20;;;;;;;4.83;91.57;100252.78;5038850;28;20044;-46
2023/03/15 04:19:14;;;;;;;0.30;0.30;;;;;;;4.73;91.55;100255.84;5043980;28;20034;-46
2023/03/15 04:21:46;;;;;;;0.20;0.20;;;;;;;4.38;93.17;100260.63;5042953;28;20037;-48
2023/03/15 04:24:24;;;;;;;0.20;0.20;;;;;;;4.27;94.42;100262.13;5044381;28;20124;-44
2023/03/15 04:27:07;;;;;;;0.28;0.28;;;;;;;4.55;93.69;100265.06;5023029;28;20079;-48
2023/03/15 04:29:43;;;;;;;0.28;0.28;;;;;;;4.53;93.57;100262.72;5023200;28;20087;-47
2023/03/15 04:32:19;;;;;;;0.20;0.20;;;;;;;4.66;93.11;100260.13;5028364;28;20033;-53
2023/03/15 04:34:54;;;;;;;0.30;0.30;;;;;;;4.68;92.41;100260.59;5028668;28;20070;-47
2023/03/15 04:37:46;;;;;;;0.38;0.38;;;;;;;4.64;92.22;100271.13;5029950;28;20073;-49
2023/03/15 04:40:33;;;;;;;0.22;0.22;;;;;;;4.78;91.63;100276.22;5020860;28;20040;-47
2023/03/15 04:43:20;;;;;;;0.20;0.20;;;;;;;4.58;91.83;100278.53;5031298;28;20120;-50
2023/03/15 04:46:04;;;;;;;0.20;0.20;;;;;;;4.58;91.86;100289.22;5015863;28;20048;-47
2023/03/15 04:48:40;;;;;;;0.32;0.32;;;;;;;4.39;92.67;100294.16;5027338;28;20065;-51
2023/03/15 04:51:21;;;;;;;0.40;0.40;;;;;;;4.41;92.69;100291.97;5037701;28;20044;-48
2023/03/15 04:53:54;;;;;;;0.30;0.30;;;;;;;4.44;92.50;100290.53;5039344;28;20041;-48
2023/03/15 04:56:49;;;;;;;0.30;0.30;;;;;;;4.32;93.69;100285.91;4996503;28;20069;-48
2023/03/15 04:59:33;;;;;;;0.20;0.20;;;;;;;4.29;93.64;100293.75;5021383;28;20521;-47
2023/03/15 05:02:40;;;;;;;0.30;0.30;;;;;;;4.35;93.45;100295.94;5007894;28;20044;-49
2023/03/15 05:05:24;;;;;;;0.20;0.20;;;;;;;4.31;93.87;100291.56;5021661;28;20040;-51
2023/03/15 05:07:50;;;;;;;0.30;0.30;;;;;;;4.31;94.01;100296.88;5029137;28;20045;-52
2023/03/15 05:10:34;;;;;;;0.28;0.28;;;;;;;4.43;93.93;100297.00;5031537;28;20022;-50
2023/03/15 05:13:10;;;;;;;0.28;0.28;;;;;;;4.57;92.90;100302.84;5013574;28;20805;-49
2023/03/15 05:15:46;;;;;;;0.20;0.20;;;;;;;4.57;93.09;100302.84;5031219;28;20044;-47
2023/03/15 05:18:30;;;;;;;0.30;0.30;;;;;;;4.59;92.95;100313.97;5017606;28;20048;-47
2023/03/15 05:21:34;;;;;;;0.20;0.20;;;;;;;4.57;92.38;100316.16;5014138;28;20046;-50
2023/03/15 05:24:25;;;;;;;0.40;0.40;;;;;;;4.57;92.54;100303.63;5003836;28;20045;-49
2023/03/15 05:27:10;;;;;;;0.40;0.40;;;;;;;4.63;92.43;100322.13;5013236;28;20125;-50
2023/03/15 05:29:53;;;;;;;0.20;0.20;;;;;;;4.56;92.64;100322.63;5034435;28;20500;-48
2023/03/15 05:32:53;;;;;;;0.30;0.30;;;;;;;4.43;92.66;100339.63;5010759;28;20041;-49
2023/03/15 05:35:39;;;;;;;0.20;0.20;;;;;;;4.41;92.45;100331.19;5021020;28;20296;-47
2023/03/15 05:38:25;;;;;;;0.30;0.30;;;;;;;4.47;92.37;100348.56;5030685;28;20103;-48
2023/03/15 05:41:11;;;;;;;0.10;0.10;;;;;;;4.54;92.57;100352.28;5012417;28;20041;-50
2023/03/15 05:43:44;;;;;;;0.22;0.22;;;;;;;4.43;93.11;100366.28;5030453;28;20485;-50
2023/03/15 05:46:17;;;;;;;0.20;0.20;;;;;;;4.46;93.03;100362.97;5040476;28;20064;-48
2023/03/15 05:49:01;;;;;;;0.30;0.30;;;;;;;4.51;92.45;100384.09;5022165;28;20049;-51
2023/03/15 05:51:42;;;;;;;0.52;0.52;;;;;;;4.56;92.56;100376.72;5030562;28;20396;-49
2023/03/15 05:54:26;;;;;;;0.20;0.20;;;;;;;4.47;92.79;100391.97;5029376;28;20043;-50
2023/03/15 05:57:09;;;;;;;0.40;0.40;;;;;;;4.56;92.76;100386.59;5027485;28;20034;-51
2023/03/15 05:59:42;;;;;;;0.40;0.40;;;;;;;4.36;93.15;100392.63;5030610;28;20026;-49
2023/03/15 06:02:20;;;;;;;0.98;0.88;;;;;;;4.43;93.98;100404.38;5022369;28;20721;-52
2023/03/15 06:05:05;;;;;;;1.15;1.15;;;;;;;4.46;94.19;100405.63;5038475;28;20036;-50
2023/03/15 06:07:30;;;;;;;0.55;0.47;;;;;;;4.56;93.83;100414.06;5032443;28;20033;-49
2023/03/15 06:09:56;;;;;;;0.22;0.22;;;;;;;4.61;93.50;100409.66;5032439;28;20064;-50
2023/03/15 06:12:22;;;;;;;0.30;0.30;;;;;;;4.55;94.62;100409.81;5026416;28;20407;-50
2023/03/15 06:14:48;;;;;;;0.30;0.30;;;;;;;4.58;93.91;100411.06;5029690;28;20025;-51
2023/03/15 06:17:13;;;;;;;0.30;0.30;;;;;;;4.71;93.48;100412.72;5022624;28;20049;-48
2023/03/15 06:19:42;;;;;;;0.40;0.40;;;;;;;4.73;93.38;100420.41;5046202;28;20485;-48
2023/03/15 06:22:08;;;;;;;0.40;0.40;;;;;;;4.73;93.65;100421.19;5030766;28;20116;-47
2023/03/15 06:24:41;;;;;;;0.20;0.20;;;;;;;4.75;93.57;100426.19;5021946;28;20055;-53
2023/03/15 06:27:07;;;;;;;0.20;0.20;;;;;;;4.71;93.78;100438.59;5029871;28;20037;-48
2023/03/15 06:29:34;;;;;;;0.20;0.20;;;;;;;4.80;93.77;100450.03;5027879;28;20029;-49
2023/03/15 06:32:02;;;;;;;0.20;0.20;;;;;;;4.74;93.87;100457.44;5024757;28;20388;-48
2023/03/15 06:34:27;;;;;;;0.20;0.20;;;;;;;4.77;93.67;100464.78;5037948;28;20104;-47
2023/03/15 06:36:54;;;;;;;0.20;0.20;;;;;;;4.76;94.53;100465.09;5040360;28;20052;-48
2023/03/15 06:39:22;;;;;;;0.20;0.20;;;;;;;4.71;94.12;100466.06;5036505;28;20388;-50
2023/03/15 06:41:52;;;;;;;0.30;0.30;;;;;;;4.77;94.32;100469.31;5032234;28;20033;-51
2023/03/15 06:44:20;;;;;;;0.20;0.20;;;;;;;4.96;93.07;100470.50;5031356;28;20129;-51
2023/03/15 06:46:51;;;;;;;0.30;0.30;;;;;;;4.77;93.30;100462.13;5015873;28;20037;-51
2023/03/15 06:49:16;;;;;;;0.20;0.20;;;;;;;4.79;93.45;100473.25;5024034;28;20033;-54
2023/03/15 06:51:44;;;;;;;0.20;0.20;;;;;;;4.79;93.80;100477.78;5021902;28;20030;-53
2023/03/15 06:54:10;;;;;;;0.20;0.20;;;;;;;4.75;93.69;100474.97;5024047;28;20083;-51
2023/03/15 06:56:36;;;;;;;0.28;0.28;;;;;;;4.83;93.10;100486.72;5020889;28;20025;-52
2023/03/15 06:59:02;;;;;;;0.20;0.20;;;;;;;4.91;93.00;100484.03;5029631;28;20064;-52
2023/03/15 07:01:28;;;;;;;0.32;0.32;;;;;;;4.79;94.05;100499.13;5021286;28;20040;-47
2023/03/15 07:03:53;;;;;;;0.55;0.55;;;;;;;4.75;95.09;100493.66;5032173;28;20030;-49
2023/03/15 07:06:19;;;;;;;0.30;0.30;;;;;;;5.05;94.25;100494.47;5048086;28;20479;-52
2023/03/15 07:08:45;;;;;;;0.28;0.28;;;;;;;5.23;93.25;100512.72;5033722;28;20040;-47
2023/03/15 07:11:12;;;;;;;0.30;0.30;;;;;;;5.33;94.51;100506.25;5030372;28;20025;-46
2023/03/15 07:13:37;;;;;;;0.20;0.20;;;;;;;5.54;92.56;100512.38;5016828;28;20041;-49
2023/03/15 07:16:03;;;;;;;0.20;0.20;;;;;;;5.48;92.29;100511.81;5025489;28;20029;-47
2023/03/15 07:18:28;;;;;;;0.40;0.40;;;;;;;5.45;92.04;100515.13;5014655;28;20544;-48
2023/03/15 07:20:58;;;;;;;0.40;0.40;;;;;;;5.46;91.58;100518.56;5032429;28;20071;-46
2023/03/15 07:23:23;;;;;;;0.30;0.30;;;;;;;5.41;91.50;100514.22;5024628;28;20101;-46
2023/03/15 07:25:49;;;;;;;0.30;0.30;;;;;;;5.24;91.24;100516.97;5014305;28;20041;-50
2023/03/15 07:28:14;;;;;;;0.50;0.50;;;;;;;5.37;92.08;100515.97;5018648;28;20029;-47
2023/03/15 07:30:39;;;;;;;0.30;0.30;;;;;;;5.53;91.96;100511.59;5016953;28;20025;-49
2023/03/15 07:33:05;;;;;;;0.55;0.55;;;;;;;5.57;91.40;100535.00;5021915;28;20041;-49
2023/03/15 07:35:30;;;;;;;0.20;0.20;;;;;;;5.63;91.73;100537.16;5019564;28;20029;-50
2023/03/15 07:37:56;;;;;;;0.63;0.63;;;;;;;5.53;92.17;100553.56;5006803;28;20059;-48
2023/03/15 07:40:22;;;;;;;0.20;0.20;;;;;;;5.60;91.62;100548.50;5011292;28;20052;-49
2023/03/15 07:42:47;;;;;;;0.20;0.20;;;;;;;5.69;91.27;100569.81;5009174;28;20033;-47
2023/03/15 07:45:13;;;;;;;0.30;0.30;;;;;;;5.67;90.56;100594.16;5005440;28;20553;-47
2023/03/15 07:47:38;;;;;;;0.52;0.52;;;;;;;5.09;92.02;100604.81;5022126;28;20056;-49
2023/03/15 07:50:05;;;;;;;0.20;0.20;;;;;;;4.83;92.54;100601.41;5011035;28;20053;-51
2023/03/15 07:52:31;;;;;;;0.30;0.30;;;;;;;4.71;93.81;100610.06;5015998;28;20063;-50
2023/03/15 07:54:57;;;;;;;0.93;0.85;;;;;;;4.47;94.46;100607.88;5010364;28;20029;-52
2023/03/15 07:57:22;;;;;;;0.25;0.25;;;;;;;4.73;93.15;100621.19;5008536;28;20037;-52
2023/03/15 07:59:48;;;;;;;0.22;0.22;;;;;;;4.83;93.13;100620.06;5016385;28;20475;-47
2023/03/15 08:02:14;;;;;;;0.20;0.20;;;;;;;4.87;91.96;100626.34;5021890;28;20029;-49
2023/03/15 08:04:40;;;;;;;0.20;0.20;;;;;;;4.78;92.65;100615.69;5012794;28;20131;-49
2023/03/15 08:07:06;;;;;;;0.30;0.30;;;;;;;4.87;92.08;100608.47;5023410;28;20579;-48
2023/03/15 08:09:33;;;;;;;0.30;0.30;;;;;;;4.93;91.52;100599.19;5014357;28;20048;-50
2023/03/15 08:11:59;;;;;;;0.30;0.30;;;;;;;4.81;92.66;100603.59;5011856;28;20076;-47
2023/03/15 08:14:25;;;;;;;0.20;0.20;;;;;;;4.82;92.80;100605.94;5002487;28;21749;-49
2023/03/15 08:16:50;;;;;;;0.20;0.20;;;;;;;4.78;92.56;100602.34;5019426;28;20096;-51
2023/03/15 08:19:16;;;;;;;0.20;0.20;;;;;;;4.91;93.56;100603.28;5021012;28;20132;-47
2023/03/15 08:21:44;;;;;;;0.20;0.20;;;;;;;5.02;93.28;100601.81;5022764;28;20056;-47
2023/03/15 08:24:13;;;;;;;0.20;0.20;;;;;;;4.96;92.78;100603.88;5021603;28;20029;-47
2023/03/15 08:26:38;;;;;;;0.20;0.20;;;;;;;4.77;94.00;100595.47;5022053;28;20480;-51
2023/03/15 08:29:04;;;;;;;0.20;0.20;;;;;;;5.19;94.39;100604.44;5012596;28;20033;-47
2023/03/15 08:31:31;;;;;;;0.30;0.30;;;;;;;5.62;93.36;100604.25;5017652;28;20094;-47
2023/03/15 08:33:56;;;;;;;0.28;0.28;;;;;;;5.58;93.14;100606.00;5020004;28;20618;-48
2023/03/15 08:36:42;;;;;;;0.20;0.20;;;;;;;6.02;93.51;100606.22;4976507;28;20053;-47
2023/03/15 08:39:07;;;;;;;0.20;0.20;;;;;;;6.69;92.26;100618.59;4927540;29;20051;-50
2023/03/15 08:41:34;;;;;;;0.35;0.35;;;;;;;7.15;91.71;100632.44;4935141;29;20058;-51
2023/03/15 08:43:59;;;;;;;0.20;0.20;;;;;;;7.85;89.30;100641.97;4938852;29;20075;-49
2023/03/15 08:46:26;;;;;;;0.20;0.20;;;;;;;8.15;88.36;100651.31;4944539;29;20055;-52
2023/03/15 08:48:52;;;;;;;0.20;0.20;;;;;;;8.55;86.94;100656.72;4946167;29;20094;-47
2023/03/15 08:51:18;;;;;;;0.20;0.20;;;;;;;8.78;85.27;100654.28;4948227;28;20043;-50
2023/03/15 08:53:44;;;;;;;0.20;0.20;;;;;;;8.68;81.57;100658.25;4933520;29;20599;-48
2023/03/15 08:56:10;;;;;;;0.10;0.10;;;;;;;8.65;82.76;100664.28;4948504;29;20043;-50
2023/03/15 08:58:36;;;;;;;0.10;0.10;;;;;;;8.91;81.90;100670.00;4948231;29;20824;-49
2023/03/15 09:01:03;;;;;;;0.13;0.13;;;;;;;8.84;81.88;100669.81;4943440;29;20071;-49
2023/03/15 09:03:31;;;;;;;0.20;0.20;;;;;;;9.19;79.81;100669.19;4949737;29;20050;-47
2023/03/15 09:05:58;;;;;;;0.10;0.10;;;;;;;9.33;79.79;100672.25;4949455;29;20062;-47
2023/03/15 09:08:24;;;;;;;0.20;0.20;;;;;;;9.26;77.27;100677.41;4950784;29;20059;-47
2023/03/15 09:10:56;;;;;;;0.10;0.10;;;;;;;9.19;77.32;100682.63;4934592;29;20126;-48
2023/03/15 09:13:23;;;;;;;0.10;0.10;;;;;;;9.10;78.94;100674.72;4952171;29;20102;-47
2023/03/15 09:15:53;;;;;;;0.20;0.20;;;;;;;9.32;79.87;100681.41;4976726;28;20083;-51
2023/03/15 09:18:19;;;;;;;0.20;0.20;;;;;;;9.77;77.52;100687.16;5046921;28;20475;-47
2023/03/15 09:20:45;;;;;;;0.10;0.10;;;;;;;9.82;76.48;100689.56;5035559;28;20132;-50
2023/03/15 09:23:11;;;;;;;0.13;0.13;;;;;;;10.38;74.89;100687.41;5037535;28;20388;-47
2023/03/15 09:25:37;;;;;;;0.10;0.10;;;;;;;10.52;74.57;100685.03;5022859;28;20057;-48
2023/03/15 09:28:07;;;;;;;0.10;0.10;;;;;;;10.60;74.15;100698.31;5025601;28;20024;-49
2023/03/15 09:30:34;;;;;;;0.10;0.10;;;;;;;10.65;73.96;100689.94;5020505;28;20120;-51
2023/03/15 09:33:21;;;;;;;0.10;0.10;;;;;;;10.91;72.61;100710.84;5026600;28;20029;-48
2023/03/15 09:35:52;;;;;;;0.10;0.10;;;;;;;10.67;69.05;100725.38;4975191;28;20082;-51
2023/03/15 09:38:19;;;;;;;0.10;0.10;;;;;;;9.44;70.50;100722.44;4977399;28;20065;-54
2023/03/15 09:40:45;;;;;;;0.10;0.10;;;;;;;8.45;74.75;100713.53;4984751;28;20445;-50
2023/03/15 09:43:45;;;;;;;0.10;0.10;;;;;;;7.85;78.02;100743.84;4983105;28;20042;-49
2023/03/15 09:46:31;;;;;;;0.10;0.10;;;;;;;6.99;82.56;100730.53;4980670;28;20046;-50
2023/03/15 09:49:38;;;;;;;0.10;0.10;;;;;;;6.80;82.91;100695.44;4986197;28;20055;-52
2023/03/15 09:52:20;;;;;;;0.20;0.20;;;;;;;6.62;84.77;100718.09;4972460;28;20050;-53
2023/03/15 09:54:55;;;;;;;0.20;0.20;;;;;;;6.94;84.83;100709.34;4982517;28;20037;-50
2023/03/15 09:57:45;;;;;;;0.20;0.20;;;;;;;7.43;83.87;100712.16;4985527;28;20192;-47
2023/03/15 10:00:19;;;;;;;0.20;0.20;;;;;;;7.86;83.88;100709.75;4986968;28;20493;-48
2023/03/15 10:02:59;;;;;;;0.20;0.20;;;;;;;8.13;84.91;100707.19;4985779;28;20150;-49
2023/03/15 10:05:33;;;;;;;0.10;0.10;;;;;;;8.37;84.46;100706.41;4996324;28;20447;-47
2023/03/15 10:07:59;;;;;;;0.90;0.55;;;;;;;8.81;83.06;100716.13;5006477;28;20048;-47
2023/03/15 10:10:32;;;;;;;0.17;0.17;;;;;;;9.04;82.20;100717.16;4983548;28;20019;-50
2023/03/15 10:13:12;;;;;;;0.20;0.20;;;;;;;9.30;79.16;100714.00;5005534;28;20049;-52
2023/03/15 10:15:53;;;;;;;0.20;0.20;;;;;;;9.19;80.38;100726.41;5040910;28;20041;-52
2023/03/15 10:18:37;;;;;;;0.20;0.20;;;;;;;9.45;78.47;100724.00;5036581;28;20485;-52
2023/03/15 10:21:32;;;;;;;0.20;0.20;;;;;;;9.80;77.48;100732.16;5030438;28;20397;-52
2023/03/15 10:24:02;;;;;;;0.20;0.20;;;;;;;9.86;78.83;100734.25;5033656;28;20056;-51
2023/03/15 10:26:31;;;;;;;0.10;0.10;;;;;;;10.10;76.21;100746.78;5024335;28;20033;-49
2023/03/15 10:28:59;;;;;;;0.10;0.10;;;;;;;8.82;77.66;100731.13;5009786;28;20030;-49
2023/03/15 10:31:30;;;;;;;0.10;0.10;;;;;;;8.56;78.22;100720.00;5030487;28;20079;-51
2023/03/15 10:33:56;;;;;;;0.20;0.20;;;;;;;8.20;80.89;100718.16;5025033;28;20040;-50
2023/03/15 10:36:23;;;;;;;0.10;0.10;;;;;;;7.93;82.26;100724.19;5021081;28;20633;-50
2023/03/15 10:38:49;;;;;;;0.25;0.25;;;;;;;7.89;82.84;100725.97;5025220;28;20042;-52
2023/03/15 10:41:36;;;;;;;0.15;0.15;;;;;;;7.63;83.64;100722.81;5016137;28;20172;-52
2023/03/15 10:44:06;;;;;;;0.20;0.20;;;;;;;7.69;83.56;100726.84;5012475;28;20367;-50
2023/03/15 10:46:34;;;;;;;0.20;0.20;;;;;;;8.00;81.49;100740.50;5032656;28;20049;-49
2023/03/15 10:49:15;;;;;;;0.20;0.20;;;;;;;7.65;80.46;100727.81;5021994;28;20411;-47
2023/03/15 10:51:44;;;;;;;0.20;0.20;;;;;;;7.66;81.32;100729.41;5040506;28;20087;-49
2023/03/15 10:54:23;;;;;;;0.20;0.20;;;;;;;7.58;82.87;100730.28;5033009;28;20411;-50
2023/03/15 10:56:56;;;;;;;0.20;0.20;;;;;;;7.88;82.46;100728.97;5031624;28;20026;-47
2023/03/15 10:59:24;;;;;;;0.20;0.20;;;;;;;7.85;83.80;100726.97;5024739;28;20091;-49
2023/03/15 11:02:11;;;;;;;0.20;0.20;;;;;;;7.70;87.76;100727.63;5024959;28;20033;-50
2023/03/15 11:05:00;;;;;;;0.20;0.20;;;;;;;8.31;86.70;100731.09;5020658;28;20049;-47
2023/03/15 11:07:25;;;;;;;0.30;0.30;;;;;;;8.54;86.28;100732.97;5017351;28;20045;-50
2023/03/15 11:09:54;;;;;;;0.20;0.20;;;;;;;8.73;86.04;100719.72;5020841;28;20030;-48
2023/03/15 11:12:24;;;;;;;0.20;0.20;;;;;;;8.80;85.46;100725.31;5020333;28;20038;-47
2023/03/15 11:14:56;;;;;;;5.88;1.00;;;;;;;8.42;85.97;100733.00;5021645;28;20055;-49
2023/03/15 11:17:32;;;;;;;0.20;0.20;;;;;;;8.57;85.92;100737.69;5036424;28;20053;-47
2023/03/15 11:20:25;;;;;;;0.20;0.20;;;;;;;8.47;85.75;100740.81;5029537;28;20034;-51
2023/03/15 11:22:52;;;;;;;0.20;0.20;;;;;;;8.63;84.66;100741.66;5034650;28;20033;-49
2023/03/15 11:25:19;;;;;;;0.10;0.10;;;;;;;8.95;83.54;100743.38;5035665;28;20033;-49
2023/03/15 11:27:50;;;;;;;0.20;0.20;;;;;;;9.20;80.32;100752.13;5028315;28;20025;-48
2023/03/15 11:30:17;;;;;;;0.10;0.10;;;;;;;9.44;78.35;100751.22;5023173;28;20139;-48
2023/03/15 11:32:45;;;;;;;0.20;0.20;;;;;;;9.37;78.55;100759.13;5038206;28;20043;-49
2023/03/15 11:35:21;;;;;;;0.20;0.20;;;;;;;9.26;78.28;100760.72;5025264;28;20036;-51
2023/03/15 11:37:53;;;;;;;0.20;0.20;;;;;;;9.48;76.38;100762.84;5024375;28;20552;-48
2023/03/15 11:40:47;;;;;;;0.10;0.10;;;;;;;9.26;73.77;100771.47;5034578;28;20487;-52
2023/03/15 11:43:21;;;;;;;0.10;0.10;;;;;;;9.60;70.69;100776.25;5022390;28;20042;-46
2023/03/15 11:45:55;;;;;;;0.10;0.10;;;;;;;9.12;70.42;100779.16;5034219;28;20113;-48
2023/03/15 11:48:41;;;;;;;0.20;0.20;;;;;;;9.02;70.82;100775.81;5035641;28;20029;-50
2023/03/15 11:51:11;;;;;;;0.10;0.10;;;;;;;8.91;73.21;100766.66;5032980;28;20381;-49
2023/03/15 11:54:16;;;;;;;0.22;0.22;;;;;;;9.19;74.06;100772.06;5025727;28;20052;-48